Time;durP1;ratioP1;P1;durP2;ratioP2;P2;SDS_P1;SDS_P2;PMS_P1;PMS_P2;Temp;Humidity;BMP_temperature;BMP_pressure;BME280_temperature;BME280_humidity;BME280_pressure;Samples;Min_cycle;Max_cycle;Signal;HPM_P1;HPM_P2
2022/10/16 00:00:23;;;;;;;;;;;23.00;99.90;;;;;;4184250;28;19968;-67
2022/10/16 00:02:32;;;;;;;;;;;23.00;99.90;;;;;;4184010;28;19925;-66
2022/10/16 00:04:51;;;;;;;;;;;23.00;99.90;;;;;;4192505;28;20315;-67
2022/10/16 00:07:01;;;;;;;;;;;23.00;99.90;;;;;;4192316;28;19925;-66
2022/10/16 00:09:09;;;;;;;;;;;23.10;99.90;;;;;;4192877;28;20458;-66
2022/10/16 00:11:23;;;;;;;;;;;23.10;99.90;;;;;;4194513;28;19925;-67
2022/10/16 00:13:29;;;;;;;;;;;23.10;99.90;;;;;;4192980;28;19954;-66
2022/10/16 00:15:36;;;;;;;;;;;23.10;99.90;;;;;;4194183;28;20275;-66
2022/10/16 00:17:41;;;;;;;;;;;23.10;99.90;;;;;;4184678;28;19964;-66
2022/10/16 00:19:45;;;;;;;;;;;23.00;99.90;;;;;;4191958;28;19928;-66
2022/10/16 00:21:51;;;;;;;;;;;23.10;99.90;;;;;;4183517;28;19963;-67
2022/10/16 00:24:14;;;;;;;;;;;23.00;99.90;;;;;;4193831;28;20618;-67
2022/10/16 00:26:18;;;;;;;;;;;23.00;99.40;;;;;;4184110;28;20033;-67
2022/10/16 00:28:23;;;;;;;;;;;23.00;98.90;;;;;;4189350;28;19936;-66
2022/10/16 00:30:28;;;;;;;;;;;23.00;99.20;;;;;;4208507;28;20480;-67
2022/10/16 00:32:33;;;;;;;;;;;23.10;98.90;;;;;;4184249;28;20322;-66
2022/10/16 00:34:39;;;;;;;;;;;23.10;98.50;;;;;;4193809;28;19932;-66
2022/10/16 00:36:47;;;;;;;;;;;23.00;97.50;;;;;;4192426;28;19925;-66
2022/10/16 00:38:59;;;;;;;;;;;23.10;97.30;;;;;;4194227;28;20677;-66
2022/10/16 00:41:15;;;;;;;;;;;23.10;97.20;;;;;;4192147;28;20454;-67
2022/10/16 00:43:35;;;;;;;;;;;23.10;96.40;;;;;;4193904;28;20016;-69
2022/10/16 00:45:40;;;;;;;;;;;23.20;97.00;;;;;;4191589;28;19929;-66
2022/10/16 00:48:04;;;;;;;;;;;23.20;96.70;;;;;;4192610;28;19928;-66
2022/10/16 00:50:14;;;;;;;;;;;23.20;96.70;;;;;;4208794;28;20054;-66
2022/10/16 00:52:23;;;;;;;;;;;23.20;97.00;;;;;;4193657;28;19932;-67
2022/10/16 00:54:29;;;;;;;;;;;23.10;95.90;;;;;;4177274;28;20306;-66
2022/10/16 00:56:42;;;;;;;;;;;23.10;95.80;;;;;;4210395;28;19932;-66
2022/10/16 00:58:46;;;;;;;;;;;23.20;96.00;;;;;;4212987;28;19928;-66
2022/10/16 01:00:56;;;;;;;;;;;23.30;95.90;;;;;;4197317;28;19939;-66
2022/10/16 01:03:21;;;;;;;;;;;23.20;96.70;;;;;;4212981;28;20449;-67
2022/10/16 01:05:40;;;;;;;;;;;23.20;96.40;;;;;;4211422;28;19924;-66
2022/10/16 01:08:04;;;;;;;;;;;23.20;95.80;;;;;;4217799;28;19927;-66
2022/10/16 01:10:17;;;;;;;;;;;23.10;95.80;;;;;;4197385;28;20528;-66
2022/10/16 01:12:32;;;;;;;;;;;23.00;95.50;;;;;;4197561;28;19994;-66
2022/10/16 01:15:08;;;;;;;;;;;23.00;95.70;;;;;;4196243;28;20309;-67
2022/10/16 01:17:51;;;;;;;;;;;23.10;95.60;;;;;;4166859;28;20395;-67
2022/10/16 01:20:16;;;;;;;;;;;23.10;95.80;;;;;;4180670;28;19932;-66
2022/10/16 01:22:32;;;;;;;;;;;23.20;95.80;;;;;;4178853;28;19925;-67
2022/10/16 01:24:44;;;;;;;;;;;23.10;95.70;;;;;;4196563;28;19935;-67
2022/10/16 01:27:17;;;;;;;;;;;23.10;96.10;;;;;;4178591;28;19925;-66
2022/10/16 01:29:27;;;;;;;;;;;23.30;96.00;;;;;;4158991;28;20626;-67
2022/10/16 01:31:37;;;;;;;;;;;23.40;96.10;;;;;;4192928;28;20375;-67
2022/10/16 01:33:48;;;;;;;;;;;23.40;96.10;;;;;;4193158;28;20655;-67
2022/10/16 01:35:59;;;;;;;;;;;23.40;95.80;;;;;;4192522;28;20296;-67
2022/10/16 01:38:08;;;;;;;;;;;23.30;95.40;;;;;;4202439;28;19924;-67
2022/10/16 01:40:14;;;;;;;;;;;23.40;96.00;;;;;;4208838;28;19928;-66
2022/10/16 01:42:24;;;;;;;;;;;23.50;95.30;;;;;;4209002;28;19928;-66
2022/10/16 01:44:36;;;;;;;;;;;23.50;95.80;;;;;;4194493;28;19936;-66
2022/10/16 01:46:46;;;;;;;;;;;23.50;96.30;;;;;;4208790;28;19934;-66
2022/10/16 01:48:58;;;;;;;;;;;23.60;96.20;;;;;;4208592;28;20023;-67
2022/10/16 01:51:15;;;;;;;;;;;23.60;95.60;;;;;;4207041;28;19959;-67
2022/10/16 01:53:20;;;;;;;;;;;23.40;95.70;;;;;;4192903;28;19929;-67
2022/10/16 01:55:44;;;;;;;;;;;23.50;96.00;;;;;;4194443;28;19925;-67
2022/10/16 01:57:49;;;;;;;;;;;23.60;96.30;;;;;;4210900;28;19924;-66
2022/10/16 02:00:00;;;;;;;;;;;23.60;96.20;;;;;;4196877;28;19982;-67
2022/10/16 02:02:20;;;;;;;;;;;23.60;96.60;;;;;;4193956;28;19928;-67
2022/10/16 02:04:30;;;;;;;;;;;23.70;96.20;;;;;;4194876;28;19924;-67
2022/10/16 02:06:35;;;;;;;;;;;23.70;96.60;;;;;;4172571;28;19978;-67
2022/10/16 02:08:44;;;;;;;;;;;23.80;96.40;;;;;;4199005;28;20011;-67
2022/10/16 02:10:48;;;;;;;;;;;23.70;95.70;;;;;;4194694;28;20389;-67
2022/10/16 02:12:59;;;;;;;;;;;23.70;95.70;;;;;;4176951;28;19929;-67
2022/10/16 02:15:09;;;;;;;;;;;23.70;95.90;;;;;;4194664;28;19924;-67
2022/10/16 02:17:14;;;;;;;;;;;23.80;95.90;;;;;;4201813;28;20677;-67
2022/10/16 02:19:19;;;;;;;;;;;23.80;96.20;;;;;;4196529;28;20011;-67
2022/10/16 02:21:26;;;;;;;;;;;23.70;95.70;;;;;;4191470;28;19950;-67
2022/10/16 02:23:33;;;;;;;;;;;23.50;95.70;;;;;;4182569;28;20386;-67
2022/10/16 02:25:42;;;;;;;;;;;23.60;95.80;;;;;;4201644;28;20007;-67
2022/10/16 02:27:54;;;;;;;;;;;23.60;95.90;;;;;;4180829;28;19935;-67
2022/10/16 02:30:09;;;;;;;;;;;23.70;95.90;;;;;;4169055;28;19998;-67
2022/10/16 02:32:15;;;;;;;;;;;23.70;95.40;;;;;;4192139;28;19935;-68
2022/10/16 02:34:20;;;;;;;;;;;23.80;95.20;;;;;;4163505;28;20426;-67
2022/10/16 02:36:24;;;;;;;;;;;23.80;95.00;;;;;;4210063;28;19928;-69
2022/10/16 02:38:30;;;;;;;;;;;23.70;95.00;;;;;;4212144;28;19928;-68
2022/10/16 02:40:38;;;;;;;;;;;23.80;95.30;;;;;;4195432;28;19959;-66
2022/10/16 02:42:43;;;;;;;;;;;23.90;95.20;;;;;;4195629;28;20379;-67
2022/10/16 02:44:48;;;;;;;;;;;24.00;95.00;;;;;;4196092;28;20654;-68
2022/10/16 02:46:55;;;;;;;;;;;24.00;95.30;;;;;;4195781;28;20031;-68
2022/10/16 02:49:00;;;;;;;;;;;24.00;94.90;;;;;;4195412;28;19967;-68
2022/10/16 02:51:04;;;;;;;;;;;24.00;95.20;;;;;;4211003;28;19924;-68
2022/10/16 02:53:11;;;;;;;;;;;24.10;94.50;;;;;;4220236;28;19928;-68
2022/10/16 02:55:18;;;;;;;;;;;24.20;95.00;;;;;;4212215;28;19981;-68
2022/10/16 02:57:23;;;;;;;;;;;24.30;94.50;;;;;;4211680;28;20010;-68
2022/10/16 02:59:30;;;;;;;;;;;24.40;94.40;;;;;;4199015;28;19982;-68
2022/10/16 03:01:34;;;;;;;;;;;24.50;94.40;;;;;;4195226;28;20345;-68
2022/10/16 03:03:41;;;;;;;;;;;24.50;94.10;;;;;;4195329;28;19932;-68
2022/10/16 03:05:47;;;;;;;;;;;24.50;94.40;;;;;;4195143;28;20027;-68
2022/10/16 03:07:54;;;;;;;;;;;24.40;94.50;;;;;;4202803;28;19935;-68
2022/10/16 03:10:00;;;;;;;;;;;24.20;94.40;;;;;;4211837;28;20315;-68
2022/10/16 03:12:15;;;;;;;;;;;24.10;94.70;;;;;;4212003;28;19936;-67
2022/10/16 03:14:19;;;;;;;;;;;24.10;94.80;;;;;;4212216;28;19932;-67
2022/10/16 03:16:24;;;;;;;;;;;24.10;95.10;;;;;;4212290;28;20022;-67
2022/10/16 03:18:32;;;;;;;;;;;24.10;95.00;;;;;;4210873;28;19934;-68
2022/10/16 03:20:37;;;;;;;;;;;24.20;95.10;;;;;;4211690;28;19973;-67
2022/10/16 03:22:42;;;;;;;;;;;24.30;95.00;;;;;;4211848;28;20425;-66
2022/10/16 03:24:57;;;;;;;;;;;24.40;95.30;;;;;;4211643;28;19966;-67
2022/10/16 03:27:11;;;;;;;;;;;24.30;94.60;;;;;;4212145;28;19960;-68
2022/10/16 03:29:20;;;;;;;;;;;24.30;94.40;;;;;;4203233;28;19928;-67
2022/10/16 03:31:42;;;;;;;;;;;24.30;93.80;;;;;;4193165;28;19951;-67
2022/10/16 03:33:53;;;;;;;;;;;24.50;94.20;;;;;;4192906;28;20332;-67
2022/10/16 03:36:03;;;;;;;;;;;24.60;94.10;;;;;;4193704;28;19931;-67
2022/10/16 03:38:27;;;;;;;;;;;24.60;94.00;;;;;;4194114;28;19952;-67
2022/10/16 03:40:43;;;;;;;;;;;24.70;93.70;;;;;;4193349;28;20450;-67
2022/10/16 03:42:57;;;;;;;;;;;24.60;93.00;;;;;;4194281;28;19925;-67
2022/10/16 03:45:14;;;;;;;;;;;24.60;93.50;;;;;;4192914;28;20017;-67
2022/10/16 03:47:29;;;;;;;;;;;24.70;93.60;;;;;;4192721;28;19975;-67
2022/10/16 03:49:36;;;;;;;;;;;24.70;93.60;;;;;;4210467;28;19928;-68
2022/10/16 03:51:46;;;;;;;;;;;24.80;93.90;;;;;;4191913;28;20442;-67
2022/10/16 03:53:53;;;;;;;;;;;24.90;93.40;;;;;;4193690;28;19928;-67
2022/10/16 03:56:04;;;;;;;;;;;25.10;93.50;;;;;;4191734;28;19930;-67
2022/10/16 03:58:15;;;;;;;;;;;25.10;92.80;;;;;;4193597;28;19951;-67
2022/10/16 04:00:42;;;;;;;;;;;25.30;94.40;;;;;;4206673;28;19927;-67
2022/10/16 04:02:48;;;;;;;;;;;25.20;92.40;;;;;;4208925;28;20424;-68
2022/10/16 04:04:57;;;;;;;;;;;25.00;92.40;;;;;;4193707;28;19970;-67
2022/10/16 04:07:02;;;;;;;;;;;25.00;92.70;;;;;;4190110;28;19964;-67
2022/10/16 04:09:09;;;;;;;;;;;25.00;93.00;;;;;;4185464;28;20055;-68
2022/10/16 04:11:18;;;;;;;;;;;25.20;92.60;;;;;;4193377;28;20287;-67
2022/10/16 04:13:23;;;;;;;;;;;25.20;92.70;;;;;;4193117;28;19929;-67
2022/10/16 04:15:27;;;;;;;;;;;25.10;91.80;;;;;;4193220;28;20412;-67
2022/10/16 04:17:36;;;;;;;;;;;25.10;93.30;;;;;;4193648;28;19929;-67
2022/10/16 04:19:42;;;;;;;;;;;25.10;92.60;;;;;;4184186;28;19963;-67
2022/10/16 04:21:46;;;;;;;;;;;25.10;92.30;;;;;;4193129;28;19939;-67
2022/10/16 04:23:58;;;;;;;;;;;25.10;92.90;;;;;;4193660;28;19928;-67
2022/10/16 04:26:03;;;;;;;;;;;25.20;92.80;;;;;;4190962;28;19986;-67
2022/10/16 04:28:08;;;;;;;;;;;25.30;93.10;;;;;;4193230;28;19931;-67
2022/10/16 04:30:20;;;;;;;;;;;25.30;92.60;;;;;;4194285;28;19932;-67
2022/10/16 04:32:24;;;;;;;;;;;25.30;92.60;;;;;;4197258;28;19978;-68
2022/10/16 04:34:28;;;;;;;;;;;25.40;92.70;;;;;;4211669;28;19981;-67
2022/10/16 04:36:38;;;;;;;;;;;25.20;92.40;;;;;;4196418;28;19928;-67
2022/10/16 04:38:43;;;;;;;;;;;25.20;92.60;;;;;;4197403;28;19981;-67
2022/10/16 04:40:47;;;;;;;;;;;25.10;91.90;;;;;;4196341;28;19928;-68
2022/10/16 04:42:56;;;;;;;;;;;25.10;92.60;;;;;;4196564;28;20026;-68
2022/10/16 04:45:00;;;;;;;;;;;25.20;92.50;;;;;;4193936;28;19963;-68
2022/10/16 04:47:05;;;;;;;;;;;25.10;91.90;;;;;;4196647;28;19924;-67
2022/10/16 04:49:11;;;;;;;;;;;25.20;92.20;;;;;;4196313;28;19932;-67
2022/10/16 04:51:15;;;;;;;;;;;25.30;92.50;;;;;;4196078;28;19928;-67
2022/10/16 04:53:20;;;;;;;;;;;25.30;92.10;;;;;;4194300;28;20297;-68
2022/10/16 04:55:29;;;;;;;;;;;25.30;92.60;;;;;;4196289;28;19929;-67
2022/10/16 04:57:33;;;;;;;;;;;25.30;92.70;;;;;;4196232;28;19925;-68
2022/10/16 04:59:39;;;;;;;;;;;25.40;92.50;;;;;;4208922;28;20511;-67
2022/10/16 05:01:43;;;;;;;;;;;25.50;92.10;;;;;;4196124;28;19928;-68
2022/10/16 05:03:47;;;;;;;;;;;25.50;92.60;;;;;;4196322;28;19986;-67
2022/10/16 05:05:52;;;;;;;;;;;25.60;92.60;;;;;;4195398;28;20626;-68
2022/10/16 05:07:57;;;;;;;;;;;25.60;92.80;;;;;;4196302;28;19924;-67
2022/10/16 05:10:11;;;;;;;;;;;25.70;93.00;;;;;;4183347;28;19957;-68
2022/10/16 05:12:33;;;;;;;;;;;25.70;92.40;;;;;;4196274;28;19925;-67
2022/10/16 05:14:47;;;;;;;;;;;25.70;92.70;;;;;;4194979;28;20516;-68
2022/10/16 05:17:01;;;;;;;;;;;25.80;92.40;;;;;;4194017;28;19964;-67
2022/10/16 05:19:06;;;;;;;;;;;25.70;91.50;;;;;;4196239;28;19936;-67
2022/10/16 05:21:29;;;;;;;;;;;25.80;91.80;;;;;;4211341;28;20039;-67
2022/10/16 05:23:33;;;;;;;;;;;25.80;92.30;;;;;;4195537;28;19929;-68
2022/10/16 05:25:39;;;;;;;;;;;25.70;91.80;;;;;;4196014;28;19932;-68
2022/10/16 05:27:48;;;;;;;;;;;25.70;92.00;;;;;;4194743;28;19971;-68
2022/10/16 05:29:52;;;;;;;;;;;25.70;92.60;;;;;;4211481;28;19998;-67
2022/10/16 05:31:59;;;;;;;;;;;25.80;92.20;;;;;;4195891;28;20370;-67
2022/10/16 05:34:05;;;;;;;;;;;25.90;92.50;;;;;;4196562;28;19931;-67
2022/10/16 05:36:10;;;;;;;;;;;26.00;92.00;;;;;;4196218;28;20478;-67
2022/10/16 05:38:16;;;;;;;;;;;26.00;92.00;;;;;;4212059;28;20414;-66
2022/10/16 05:40:22;;;;;;;;;;;26.00;92.40;;;;;;4195900;28;19996;-67
2022/10/16 05:42:26;;;;;;;;;;;26.00;91.90;;;;;;4208328;28;19951;-66
2022/10/16 05:44:32;;;;;;;;;;;26.00;91.30;;;;;;4213070;28;19924;-67
2022/10/16 05:46:39;;;;;;;;;;;26.00;91.50;;;;;;4212901;28;20461;-67
2022/10/16 05:48:44;;;;;;;;;;;26.00;91.60;;;;;;4213260;28;20471;-67
2022/10/16 05:50:50;;;;;;;;;;;26.00;91.50;;;;;;4195743;28;19928;-67
2022/10/16 05:52:56;;;;;;;;;;;26.00;91.40;;;;;;4213132;28;19939;-68
2022/10/16 05:55:00;;;;;;;;;;;26.10;91.40;;;;;;4205278;28;20600;-67
2022/10/16 05:57:08;;;;;;;;;;;26.00;91.10;;;;;;4196401;28;19933;-67
2022/10/16 05:59:12;;;;;;;;;;;26.00;91.10;;;;;;4196043;28;20435;-67
2022/10/16 06:01:17;;;;;;;;;;;26.00;91.20;;;;;;4195978;28;20329;-67
2022/10/16 06:03:23;;;;;;;;;;;25.90;91.80;;;;;;4196514;28;19954;-68
2022/10/16 06:05:30;;;;;;;;;;;25.80;91.70;;;;;;4195932;28;19939;-67
2022/10/16 06:07:35;;;;;;;;;;;25.60;91.90;;;;;;4200573;28;19981;-67
2022/10/16 06:09:41;;;;;;;;;;;25.50;91.90;;;;;;4228377;28;19932;-68
2022/10/16 06:11:48;;;;;;;;;;;25.60;92.50;;;;;;4212759;28;19966;-67
2022/10/16 06:13:53;;;;;;;;;;;25.70;92.50;;;;;;4212689;28;20447;-67
2022/10/16 06:15:58;;;;;;;;;;;25.80;92.40;;;;;;4207167;28;20389;-67
2022/10/16 06:18:16;;;;;;;;;;;25.80;92.50;;;;;;4205208;28;19928;-67
2022/10/16 06:20:31;;;;;;;;;;;25.90;92.90;;;;;;4178558;28;19982;-67
2022/10/16 06:22:40;;;;;;;;;;;25.80;92.30;;;;;;4179457;28;19928;-67
2022/10/16 06:24:47;;;;;;;;;;;25.90;92.90;;;;;;4179785;28;19951;-67
2022/10/16 06:26:54;;;;;;;;;;;26.00;91.80;;;;;;4194726;28;20563;-67
2022/10/16 06:29:00;;;;;;;;;;;26.00;92.10;;;;;;4212389;28;19928;-67
2022/10/16 06:31:08;;;;;;;;;;;26.10;92.20;;;;;;4198803;28;19929;-68
2022/10/16 06:33:12;;;;;;;;;;;26.10;91.30;;;;;;4195535;28;19928;-67
2022/10/16 06:35:18;;;;;;;;;;;26.20;91.70;;;;;;4210059;28;19924;-68
2022/10/16 06:37:24;;;;;;;;;;;26.30;91.00;;;;;;4199356;28;19935;-67
2022/10/16 06:39:29;;;;;;;;;;;26.20;90.60;;;;;;4212176;28;19928;-66
2022/10/16 06:41:38;;;;;;;;;;;26.20;91.10;;;;;;4212046;28;19925;-68
2022/10/16 06:43:50;;;;;;;;;;;26.40;91.20;;;;;;4227951;28;19958;-68
2022/10/16 06:45:55;;;;;;;;;;;26.40;90.90;;;;;;4211716;28;20282;-67
2022/10/16 06:48:01;;;;;;;;;;;26.40;90.60;;;;;;4212227;28;19973;-68
2022/10/16 06:50:07;;;;;;;;;;;26.50;90.90;;;;;;4212188;28;19928;-67
2022/10/16 06:52:11;;;;;;;;;;;26.60;90.90;;;;;;4212529;28;19928;-68
2022/10/16 06:54:17;;;;;;;;;;;26.70;90.40;;;;;;4227468;28;20337;-67
2022/10/16 06:56:24;;;;;;;;;;;26.60;90.00;;;;;;4194630;28;19933;-68
2022/10/16 06:58:28;;;;;;;;;;;26.60;90.50;;;;;;4207185;28;19940;-68
2022/10/16 07:00:32;;;;;;;;;;;26.70;90.20;;;;;;4194478;28;19936;-68
2022/10/16 07:02:37;;;;;;;;;;;26.70;90.10;;;;;;4194958;28;19924;-68
2022/10/16 07:04:41;;;;;;;;;;;26.90;90.30;;;;;;4210343;28;19957;-68
2022/10/16 07:06:47;;;;;;;;;;;26.90;90.30;;;;;;4194984;28;19924;-67
2022/10/16 07:08:54;;;;;;;;;;;26.90;90.70;;;;;;4211074;28;19974;-68
2022/10/16 07:10:59;;;;;;;;;;;26.80;90.80;;;;;;4211512;28;19928;-68
2022/10/16 07:13:05;;;;;;;;;;;26.80;90.10;;;;;;4194291;28;19928;-67
2022/10/16 07:15:12;;;;;;;;;;;26.80;90.20;;;;;;4205888;28;20353;-67
2022/10/16 07:17:16;;;;;;;;;;;26.90;90.10;;;;;;4194778;28;19936;-68
2022/10/16 07:19:23;;;;;;;;;;;26.80;89.80;;;;;;4195255;28;19932;-67
2022/10/16 07:21:36;;;;;;;;;;;26.80;90.30;;;;;;4194720;28;20331;-68
2022/10/16 07:23:40;;;;;;;;;;;26.60;90.30;;;;;;4194876;28;19933;-67
2022/10/16 07:25:47;;;;;;;;;;;26.70;90.40;;;;;;4194021;28;19967;-68
2022/10/16 07:27:56;;;;;;;;;;;26.60;90.10;;;;;;4194740;28;20041;-68
2022/10/16 07:30:01;;;;;;;;;;;26.50;90.40;;;;;;4194464;28;20791;-68
2022/10/16 07:32:13;;;;;;;;;;;26.50;90.40;;;;;;4209662;28;19977;-67
2022/10/16 07:34:26;;;;;;;;;;;26.50;90.10;;;;;;4190909;28;19928;-68
2022/10/16 07:36:36;;;;;;;;;;;26.50;90.10;;;;;;4170839;28;19932;-68
2022/10/16 07:38:43;;;;;;;;;;;26.40;90.40;;;;;;4193195;28;19978;-67
2022/10/16 07:40:48;;;;;;;;;;;26.50;90.40;;;;;;4192928;28;20347;-68
2022/10/16 07:42:53;;;;;;;;;;;26.40;89.00;;;;;;4193645;28;19960;-67
2022/10/16 07:44:59;;;;;;;;;;;26.40;89.30;;;;;;4193219;28;20036;-67
2022/10/16 07:47:05;;;;;;;;;;;26.50;90.00;;;;;;4191764;28;19964;-67
2022/10/16 07:49:10;;;;;;;;;;;26.50;89.30;;;;;;4193875;28;20315;-67
2022/10/16 07:51:15;;;;;;;;;;;26.60;90.20;;;;;;4187543;28;19975;-68
2022/10/16 07:53:20;;;;;;;;;;;26.60;90.50;;;;;;4169942;28;19994;-68
2022/10/16 07:55:29;;;;;;;;;;;26.50;90.50;;;;;;4192078;28;19935;-67
2022/10/16 07:57:33;;;;;;;;;;;26.40;90.40;;;;;;4188305;28;19936;-68
2022/10/16 07:59:37;;;;;;;;;;;26.40;90.50;;;;;;4208497;28;19978;-68
2022/10/16 08:01:42;;;;;;;;;;;26.50;90.90;;;;;;4190772;28;19924;-68
2022/10/16 08:03:47;;;;;;;;;;;26.60;90.90;;;;;;4191930;28;19928;-67
2022/10/16 08:05:54;;;;;;;;;;;26.70;90.40;;;;;;4192488;28;19928;-69
2022/10/16 08:07:58;;;;;;;;;;;26.60;90.40;;;;;;4186994;28;19936;-67
2022/10/16 08:10:05;;;;;;;;;;;26.50;90.40;;;;;;4191451;28;20496;-68
2022/10/16 08:12:11;;;;;;;;;;;26.50;90.70;;;;;;4190638;28;19935;-68
2022/10/16 08:14:15;;;;;;;;;;;26.50;91.00;;;;;;4193073;28;19928;-68
2022/10/16 08:16:22;;;;;;;;;;;26.60;90.90;;;;;;4190578;28;19932;-68
2022/10/16 08:18:28;;;;;;;;;;;26.60;91.00;;;;;;4193419;28;19928;-68
2022/10/16 08:20:32;;;;;;;;;;;26.60;91.40;;;;;;4183030;28;20374;-68
2022/10/16 08:22:36;;;;;;;;;;;26.60;91.30;;;;;;4193854;28;19925;-68
2022/10/16 08:24:41;;;;;;;;;;;26.50;91.70;;;;;;4183713;28;19932;-68
2022/10/16 08:26:46;;;;;;;;;;;26.40;91.50;;;;;;4192809;28;20011;-68
2022/10/16 08:28:51;;;;;;;;;;;26.40;91.90;;;;;;4193701;28;20550;-68
2022/10/16 08:31:06;;;;;;;;;;;26.50;91.60;;;;;;4192506;28;20372;-68
2022/10/16 08:33:10;;;;;;;;;;;26.40;91.80;;;;;;4193253;28;19928;-67
2022/10/16 08:35:14;;;;;;;;;;;26.40;91.90;;;;;;4192686;28;19925;-68
2022/10/16 08:37:22;;;;;;;;;;;26.50;91.30;;;;;;4185804;28;19970;-68
2022/10/16 08:39:27;;;;;;;;;;;26.60;90.90;;;;;;4189913;28;20016;-68
2022/10/16 08:42:02;;;;;;;;;;;26.60;90.80;;;;;;4207067;28;19971;-68
2022/10/16 08:44:08;;;;;;;;;;;26.60;91.00;;;;;;4185193;28;19989;-68
2022/10/16 08:46:31;;;;;;;;;;;26.60;91.80;;;;;;4192952;28;20051;-69
2022/10/16 08:48:42;;;;;;;;;;;26.60;91.40;;;;;;4193038;28;19924;-68
2022/10/16 08:50:46;;;;;;;;;;;26.60;91.50;;;;;;4191679;28;19929;-68
2022/10/16 08:52:50;;;;;;;;;;;26.80;91.40;;;;;;4209501;28;20390;-68
2022/10/16 08:54:57;;;;;;;;;;;26.70;90.90;;;;;;4208668;28;19950;-71
2022/10/16 08:57:14;;;;;;;;;;;26.70;91.50;;;;;;4206390;28;19930;-69
2022/10/16 08:59:25;;;;;;;;;;;26.60;91.30;;;;;;4184086;28;20414;-69
2022/10/16 09:01:35;;;;;;;;;;;26.60;91.70;;;;;;4193576;28;20526;-69
2022/10/16 09:03:50;;;;;;;;;;;26.70;91.60;;;;;;4190816;28;20035;-68
2022/10/16 09:05:55;;;;;;;;;;;26.60;91.80;;;;;;4200105;28;19952;-70
2022/10/16 09:07:59;;;;;;;;;;;26.60;92.20;;;;;;4186934;28;19974;-67
2022/10/16 09:10:24;;;;;;;;;;;26.60;91.80;;;;;;4193670;28;20046;-68
2022/10/16 09:12:28;;;;;;;;;;;26.40;91.70;;;;;;4207393;28;19928;-68
2022/10/16 09:14:38;;;;;;;;;;;26.30;91.70;;;;;;4191271;28;19935;-68
2022/10/16 09:16:45;;;;;;;;;;;26.30;92.20;;;;;;4193329;28;20394;-69
2022/10/16 09:18:49;;;;;;;;;;;26.40;92.30;;;;;;4179124;28;19936;-68
2022/10/16 09:20:58;;;;;;;;;;;26.40;91.90;;;;;;4179779;28;19925;-68
2022/10/16 09:23:12;;;;;;;;;;;26.40;92.20;;;;;;4179954;28;20361;-68
2022/10/16 09:25:17;;;;;;;;;;;26.40;92.00;;;;;;4180006;28;19932;-68
2022/10/16 09:27:24;;;;;;;;;;;26.50;92.10;;;;;;4191515;28;19950;-68
2022/10/16 09:29:32;;;;;;;;;;;26.40;92.20;;;;;;4196656;28;19945;-69
2022/10/16 09:31:36;;;;;;;;;;;26.50;92.40;;;;;;4186416;28;19924;-69
2022/10/16 09:33:44;;;;;;;;;;;26.40;92.20;;;;;;4191615;28;19933;-68
2022/10/16 09:35:51;;;;;;;;;;;26.40;92.90;;;;;;4195883;28;19933;-68
2022/10/16 09:37:55;;;;;;;;;;;26.30;92.50;;;;;;4219168;28;20018;-69
2022/10/16 09:40:02;;;;;;;;;;;26.40;92.30;;;;;;4213841;28;19928;-68
2022/10/16 09:42:10;;;;;;;;;;;26.30;92.10;;;;;;4213394;28;20648;-68
2022/10/16 09:44:29;;;;;;;;;;;26.30;92.30;;;;;;4194255;28;20349;-67
2022/10/16 09:46:41;;;;;;;;;;;26.30;92.30;;;;;;4196154;28;19928;-67
2022/10/16 09:48:47;;;;;;;;;;;26.30;92.30;;;;;;4213082;28;19928;-68
2022/10/16 09:50:55;;;;;;;;;;;26.30;92.70;;;;;;4180894;28;19963;-68
2022/10/16 09:53:04;;;;;;;;;;;26.20;92.40;;;;;;4178777;28;19935;-68
2022/10/16 09:55:16;;;;;;;;;;;26.20;92.60;;;;;;4196268;28;20417;-68
2022/10/16 09:57:20;;;;;;;;;;;26.30;92.60;;;;;;4195547;28;19935;-68
2022/10/16 09:59:26;;;;;;;;;;;26.30;92.70;;;;;;4210605;28;19924;-68
2022/10/16 10:01:38;;;;;;;;;;;26.30;92.50;;;;;;4195043;28;20532;-68
2022/10/16 10:03:43;;;;;;;;;;;26.20;92.30;;;;;;4178120;28;20390;-67
2022/10/16 10:05:47;;;;;;;;;;;26.20;92.60;;;;;;4210623;28;19924;-68
2022/10/16 10:07:54;;;;;;;;;;;26.20;92.50;;;;;;4213119;28;19931;-67
2022/10/16 10:09:58;;;;;;;;;;;26.10;92.60;;;;;;4211411;28;19941;-68
2022/10/16 10:12:02;;;;;;;;;;;26.00;92.80;;;;;;4210838;28;19932;-68
2022/10/16 10:14:20;;;;;;;;;;;26.10;93.00;;;;;;4209194;28;19930;-68
2022/10/16 10:16:24;;;;;;;;;;;26.10;92.90;;;;;;4192250;28;19982;-68
2022/10/16 10:18:31;;;;;;;;;;;26.20;93.10;;;;;;4196316;28;19929;-68
2022/10/16 10:20:40;;;;;;;;;;;26.20;93.00;;;;;;4194172;28;20358;-68
2022/10/16 10:22:45;;;;;;;;;;;26.20;93.10;;;;;;4211433;28;19930;-68
2022/10/16 10:25:02;;;;;;;;;;;26.20;93.20;;;;;;4209831;28;19928;-68
2022/10/16 10:27:12;;;;;;;;;;;26.20;93.50;;;;;;4185037;28;19924;-68
2022/10/16 10:29:19;;;;;;;;;;;26.30;93.50;;;;;;4191562;28;19950;-68
2022/10/16 10:31:47;;;;;;;;;;;26.20;93.40;;;;;;4192665;28;20366;-69
2022/10/16 10:33:56;;;;;;;;;;;26.10;93.40;;;;;;4187036;28;19971;-69
2022/10/16 10:36:13;;;;;;;;;;;26.10;93.70;;;;;;4194602;28;19982;-68
2022/10/16 10:38:27;;;;;;;;;;;26.10;93.90;;;;;;4194810;28;19929;-68
2022/10/16 10:40:40;;;;;;;;;;;26.10;93.90;;;;;;4208963;28;19942;-68
2022/10/16 10:42:53;;;;;;;;;;;26.00;93.90;;;;;;4194623;28;19934;-68
2022/10/16 10:45:02;;;;;;;;;;;26.10;94.00;;;;;;4190156;28;19928;-68
2022/10/16 10:47:13;;;;;;;;;;;26.10;94.10;;;;;;4193508;28;19987;-68
2022/10/16 10:49:27;;;;;;;;;;;26.00;94.00;;;;;;4182194;28;19980;-68
2022/10/16 10:51:49;;;;;;;;;;;26.10;94.20;;;;;;4193871;28;19935;-68
2022/10/16 10:54:15;;;;;;;;;;;26.10;94.50;;;;;;4208229;28;19964;-68
2022/10/16 10:56:38;;;;;;;;;;;26.20;94.70;;;;;;4193614;28;20681;-70
2022/10/16 10:58:57;;;;;;;;;;;26.20;95.00;;;;;;4192533;28;20178;-69
2022/10/16 11:01:01;;;;;;;;;;;26.20;95.40;;;;;;4193832;28;19975;-69
2022/10/16 11:03:27;;;;;;;;;;;26.20;95.70;;;;;;4194249;28;20011;-68
2022/10/16 11:05:43;;;;;;;;;;;26.20;95.80;;;;;;4192886;28;19932;-68
2022/10/16 11:08:10;;;;;;;;;;;26.20;95.60;;;;;;4201057;28;20039;-68
2022/10/16 11:10:14;;;;;;;;;;;26.20;95.40;;;;;;4193013;28;19924;-68
2022/10/16 11:12:26;;;;;;;;;;;26.10;95.50;;;;;;4210886;28;19928;-68
2022/10/16 11:14:50;;;;;;;;;;;26.20;95.80;;;;;;4193849;28;19932;-68
2022/10/16 11:16:59;;;;;;;;;;;26.10;95.80;;;;;;4193263;28;19986;-69
2022/10/16 11:19:14;;;;;;;;;;;26.10;95.80;;;;;;4182499;28;19939;-69
2022/10/16 11:21:43;;;;;;;;;;;26.10;95.90;;;;;;4190449;28;19928;-69
2022/10/16 11:23:54;;;;;;;;;;;26.10;95.90;;;;;;4192409;28;19929;-69
2022/10/16 11:26:00;;;;;;;;;;;26.10;95.90;;;;;;4207746;28;19935;-69
2022/10/16 11:28:11;;;;;;;;;;;26.10;96.00;;;;;;4193562;28;19929;-68
2022/10/16 11:30:15;;;;;;;;;;;26.00;96.10;;;;;;4208445;28;19928;-68
2022/10/16 11:32:21;;;;;;;;;;;26.10;96.40;;;;;;4193626;28;20027;-69
2022/10/16 11:34:39;;;;;;;;;;;26.00;96.30;;;;;;4202468;28;19928;-68
2022/10/16 11:36:45;;;;;;;;;;;26.00;96.50;;;;;;4200199;28;19928;-69
2022/10/16 11:39:01;;;;;;;;;;;26.00;96.70;;;;;;4191279;28;19929;-68
2022/10/16 11:41:29;;;;;;;;;;;26.00;96.70;;;;;;4204927;28;19924;-69
2022/10/16 11:43:48;;;;;;;;;;;26.00;96.80;;;;;;4184714;28;19925;-69
2022/10/16 11:46:02;;;;;;;;;;;26.00;96.90;;;;;;4206971;28;19928;-69
2022/10/16 11:48:15;;;;;;;;;;;26.00;96.80;;;;;;4205294;28;19928;-69
2022/10/16 11:50:28;;;;;;;;;;;26.00;96.80;;;;;;4193864;28;20460;-68
2022/10/16 11:52:56;;;;;;;;;;;25.90;96.80;;;;;;4207424;28;20401;-68
2022/10/16 11:55:04;;;;;;;;;;;25.90;96.90;;;;;;4192775;28;19928;-68
2022/10/16 11:57:15;;;;;;;;;;;25.90;97.10;;;;;;4193642;28;19933;-68
2022/10/16 11:59:52;;;;;;;;;;;25.80;97.20;;;;;;4194231;28;19925;-68
2022/10/16 12:02:18;;;;;;;;;;;25.80;97.30;;;;;;4175288;28;19972;-70
2022/10/16 12:04:32;;;;;;;;;;;25.80;97.50;;;;;;4191028;28;20395;-68
2022/10/16 12:06:39;;;;;;;;;;;25.80;97.90;;;;;;4190899;28;19974;-69
2022/10/16 12:08:45;;;;;;;;;;;25.80;98.20;;;;;;4195242;28;19935;-69
2022/10/16 12:10:50;;;;;;;;;;;25.80;98.60;;;;;;4205811;28;19946;-68
2022/10/16 12:12:56;;;;;;;;;;;25.80;98.70;;;;;;4193693;28;19935;-68
2022/10/16 12:15:22;;;;;;;;;;;25.80;98.90;;;;;;4193549;28;19955;-68
2022/10/16 12:17:51;;;;;;;;;;;25.70;98.90;;;;;;4185918;28;19950;-69
2022/10/16 12:20:17;;;;;;;;;;;25.70;99.00;;;;;;4186335;28;19970;-68
2022/10/16 12:22:31;;;;;;;;;;;25.70;99.10;;;;;;4193230;28;19928;-68
2022/10/16 12:24:44;;;;;;;;;;;25.70;99.40;;;;;;4193588;28;19928;-69
2022/10/16 12:26:48;;;;;;;;;;;25.70;99.60;;;;;;4191180;28;19932;-68
2022/10/16 12:28:53;;;;;;;;;;;25.70;99.70;;;;;;4209021;28;19956;-69
2022/10/16 12:31:01;;;;;;;;;;;25.70;99.90;;;;;;4190522;28;20621;-69
2022/10/16 12:33:06;;;;;;;;;;;25.60;99.90;;;;;;4208062;28;20452;-69